sensor_id;sensor_type;location;lat;lon;timestamp;temperature;humidity
20422;DHT22;10370;53.102;18.034;2023-12-07T00:01:01;-2.20;99.90
20422;DHT22;10370;53.102;18.034;2023-12-07T00:06:23;-2.20;99.90
20422;DHT22;10370;53.102;18.034;2023-12-07T00:11:46;-2.20;99.90
20422;DHT22;10370;53.102;18.034;2023-12-07T00:17:08;-2.20;99.90
20422;DHT22;10370;53.102;18.034;2023-12-07T00:22:31;-2.20;99.90
20422;DHT22;10370;53.102;18.034;2023-12-07T00:27:56;-2.20;99.90
20422;DHT22;10370;53.102;18.034;2023-12-07T00:33:19;-2.20;99.90
20422;DHT22;10370;53.102;18.034;2023-12-07T00:38:43;-2.20;99.90
20422;DHT22;10370;53.102;18.034;2023-12-07T00:44:06;-2.10;99.90
20422;DHT22;10370;53.102;18.034;2023-12-07T00:49:29;-2.20;99.90
20422;DHT22;10370;53.102;18.034;2023-12-07T00:54:51;-2.10;99.90
20422;DHT22;10370;53.102;18.034;2023-12-07T01:00:14;-2.10;99.90
20422;DHT22;10370;53.102;18.034;2023-12-07T01:05:37;-2.10;99.90
20422;DHT22;10370;53.102;18.034;2023-12-07T01:11:00;-2.10;99.90
20422;DHT22;10370;53.102;18.034;2023-12-07T01:16:22;-2.10;99.90
20422;DHT22;10370;53.102;18.034;2023-12-07T01:21:47;-2.10;99.90
20422;DHT22;10370;53.102;18.034;2023-12-07T01:27:15;-2.10;99.90
20422;DHT22;10370;53.102;18.034;2023-12-07T01:32:38;-2.10;99.90
20422;DHT22;10370;53.102;18.034;2023-12-07T01:38:01;-2.10;99.90
20422;DHT22;10370;53.102;18.034;2023-12-07T01:43:29;-2.10;99.90
20422;DHT22;10370;53.102;18.034;2023-12-07T01:48:52;-2.10;99.90
20422;DHT22;10370;53.102;18.034;2023-12-07T01:54:15;-2.10;99.90
20422;DHT22;10370;53.102;18.034;2023-12-07T01:59:38;-2.10;99.90
20422;DHT22;10370;53.102;18.034;2023-12-07T02:05:01;-2.10;99.90
20422;DHT22;10370;53.102;18.034;2023-12-07T02:10:24;-2.10;99.90
20422;DHT22;10370;53.102;18.034;2023-12-07T02:16:22;-2.10;99.90
20422;DHT22;10370;53.102;18.034;2023-12-07T02:22:02;-2.00;99.90
20422;DHT22;10370;53.102;18.034;2023-12-07T02:27:42;-2.00;99.90
20422;DHT22;10370;53.102;18.034;2023-12-07T02:33:05;-2.00;99.90
20422;DHT22;10370;53.102;18.034;2023-12-07T02:38:28;-2.00;99.90
20422;DHT22;10370;53.102;18.034;2023-12-07T02:44:01;-2.00;99.90
20422;DHT22;10370;53.102;18.034;2023-12-07T02:49:24;-2.00;99.90
20422;DHT22;10370;53.102;18.034;2023-12-07T02:54:47;-2.00;99.90
20422;DHT22;10370;53.102;18.034;2023-12-07T03:00:10;-2.00;99.90
20422;DHT22;10370;53.102;18.034;2023-12-07T03:05:34;-2.00;99.90
20422;DHT22;10370;53.102;18.034;2023-12-07T03:11:06;-1.90;99.90
20422;DHT22;10370;53.102;18.034;2023-12-07T03:16:29;-1.90;99.90
20422;DHT22;10370;53.102;18.034;2023-12-07T03:21:51;-1.90;99.90
20422;DHT22;10370;53.102;18.034;2023-12-07T03:27:14;-1.90;99.90
20422;DHT22;10370;53.102;18.034;2023-12-07T03:32:37;-2.00;99.90
20422;DHT22;10370;53.102;18.034;2023-12-07T03:38:02;-2.00;99.90
20422;DHT22;10370;53.102;18.034;2023-12-07T03:43:25;-2.00;99.90
20422;DHT22;10370;53.102;18.034;2023-12-07T03:48:57;-2.00;99.90
20422;DHT22;10370;53.102;18.034;2023-12-07T03:54:40;-2.00;99.90
20422;DHT22;10370;53.102;18.034;2023-12-07T04:00:03;-2.10;99.90
20422;DHT22;10370;53.102;18.034;2023-12-07T04:05:27;-2.10;99.90
20422;DHT22;10370;53.102;18.034;2023-12-07T04:10:50;-2.10;99.90
20422;DHT22;10370;53.102;18.034;2023-12-07T04:16:12;-2.10;99.90
20422;DHT22;10370;53.102;18.034;2023-12-07T04:21:35;-2.10;99.90
20422;DHT22;10370;53.102;18.034;2023-12-07T04:26:58;-2.10;99.90
20422;DHT22;10370;53.102;18.034;2023-12-07T04:32:20;-2.10;99.90
20422;DHT22;10370;53.102;18.034;2023-12-07T04:37:43;-2.10;99.90
20422;DHT22;10370;53.102;18.034;2023-12-07T04:43:05;-2.10;99.90
20422;DHT22;10370;53.102;18.034;2023-12-07T04:48:59;-2.10;99.90
20422;DHT22;10370;53.102;18.034;2023-12-07T04:54:22;-2.20;99.90
20422;DHT22;10370;53.102;18.034;2023-12-07T04:59:44;-2.10;99.90
20422;DHT22;10370;53.102;18.034;2023-12-07T05:05:09;-2.10;99.90
20422;DHT22;10370;53.102;18.034;2023-12-07T05:10:32;-2.20;99.90
20422;DHT22;10370;53.102;18.034;2023-12-07T05:15:57;-2.10;99.90
20422;DHT22;10370;53.102;18.034;2023-12-07T05:21:20;-2.10;99.90
20422;DHT22;10370;53.102;18.034;2023-12-07T05:26:44;-2.10;99.90
20422;DHT22;10370;53.102;18.034;2023-12-07T05:32:16;-2.10;99.90
20422;DHT22;10370;53.102;18.034;2023-12-07T05:38:34;-2.10;99.90
20422;DHT22;10370;53.102;18.034;2023-12-07T05:43:57;-2.00;99.90
20422;DHT22;10370;53.102;18.034;2023-12-07T05:49:19;-2.00;99.90
20422;DHT22;10370;53.102;18.034;2023-12-07T05:54:44;-2.00;99.90
20422;DHT22;10370;53.102;18.034;2023-12-07T06:00:09;-2.00;99.90
20422;DHT22;10370;53.102;18.034;2023-12-07T06:05:33;-2.00;99.90
20422;DHT22;10370;53.102;18.034;2023-12-07T06:10:56;-2.00;99.90
20422;DHT22;10370;53.102;18.034;2023-12-07T06:16:19;-2.00;99.90
20422;DHT22;10370;53.102;18.034;2023-12-07T06:28:48;-1.90;99.90
20422;DHT22;10370;53.102;18.034;2023-12-07T06:34:10;-1.90;99.90
20422;DHT22;10370;53.102;18.034;2023-12-07T06:39:33;-1.90;99.90
20422;DHT22;10370;53.102;18.034;2023-12-07T06:44:56;-1.90;99.90
20422;DHT22;10370;53.102;18.034;2023-12-07T06:50:19;-1.90;99.90
20422;DHT22;10370;53.102;18.034;2023-12-07T06:55:43;-1.80;99.90
20422;DHT22;10370;53.102;18.034;2023-12-07T07:01:07;-1.80;99.90
20422;DHT22;10370;53.102;18.034;2023-12-07T07:06:41;-1.80;99.90
20422;DHT22;10370;53.102;18.034;2023-12-07T07:12:04;-1.80;99.90
20422;DHT22;10370;53.102;18.034;2023-12-07T07:17:27;-1.70;99.90
20422;DHT22;10370;53.102;18.034;2023-12-07T07:22:51;-1.70;99.90
20422;DHT22;10370;53.102;18.034;2023-12-07T07:28:14;-1.70;99.90
20422;DHT22;10370;53.102;18.034;2023-12-07T07:33:37;-1.70;99.90
20422;DHT22;10370;53.102;18.034;2023-12-07T07:39:00;-1.60;99.90
20422;DHT22;10370;53.102;18.034;2023-12-07T07:44:23;-1.60;99.90
20422;DHT22;10370;53.102;18.034;2023-12-07T07:49:45;-1.50;99.90
20422;DHT22;10370;53.102;18.034;2023-12-07T07:55:10;-1.50;99.90
20422;DHT22;10370;53.102;18.034;2023-12-07T08:00:34;-1.50;99.90
20422;DHT22;10370;53.102;18.034;2023-12-07T08:06:22;-1.40;99.90
20422;DHT22;10370;53.102;18.034;2023-12-07T08:11:45;-1.30;99.90
20422;DHT22;10370;53.102;18.034;2023-12-07T08:23:42;-1.40;99.90
20422;DHT22;10370;53.102;18.034;2023-12-07T08:35:03;-1.30;99.90
20422;DHT22;10370;53.102;18.034;2023-12-07T08:40:25;-1.20;99.90
20422;DHT22;10370;53.102;18.034;2023-12-07T08:45:49;-1.10;99.90
20422;DHT22;10370;53.102;18.034;2023-12-07T08:51:12;-1.10;99.90
20422;DHT22;10370;53.102;18.034;2023-12-07T08:56:35;-1.00;99.90
20422;DHT22;10370;53.102;18.034;2023-12-07T09:01:58;-1.00;99.90
20422;DHT22;10370;53.102;18.034;2023-12-07T09:07:21;-0.90;99.90
20422;DHT22;10370;53.102;18.034;2023-12-07T09:12:44;-0.90;99.90
20422;DHT22;10370;53.102;18.034;2023-12-07T09:18:07;-0.80;99.90
20422;DHT22;10370;53.102;18.034;2023-12-07T09:30:01;-0.70;99.90
20422;DHT22;10370;53.102;18.034;2023-12-07T09:41:32;-0.60;99.90
20422;DHT22;10370;53.102;18.034;2023-12-07T09:53:33;-0.50;99.90
20422;DHT22;10370;53.102;18.034;2023-12-07T09:58:57;-0.50;99.90
20422;DHT22;10370;53.102;18.034;2023-12-07T10:04:21;-0.40;99.90
20422;DHT22;10370;53.102;18.034;2023-12-07T10:10:16;-0.40;99.90
20422;DHT22;10370;53.102;18.034;2023-12-07T10:15:42;-0.40;99.90
20422;DHT22;10370;53.102;18.034;2023-12-07T10:21:31;-0.30;99.90
20422;DHT22;10370;53.102;18.034;2023-12-07T10:26:55;-0.30;99.90
20422;DHT22;10370;53.102;18.034;2023-12-07T10:32:24;-0.20;99.90
20422;DHT22;10370;53.102;18.034;2023-12-07T10:38:08;-0.10;99.90
20422;DHT22;10370;53.102;18.034;2023-12-07T10:49:57;-0.10;99.90
20422;DHT22;10370;53.102;18.034;2023-12-07T10:56:01;-0.10;99.90
20422;DHT22;10370;53.102;18.034;2023-12-07T11:01:30;0.00;99.90
20422;DHT22;10370;53.102;18.034;2023-12-07T11:06:57;0.00;99.90
20422;DHT22;10370;53.102;18.034;2023-12-07T11:12:47;0.10;99.90
20422;DHT22;10370;53.102;18.034;2023-12-07T11:18:13;0.10;99.90
20422;DHT22;10370;53.102;18.034;2023-12-07T11:23:37;0.20;99.90
20422;DHT22;10370;53.102;18.034;2023-12-07T11:29:00;0.10;99.90
20422;DHT22;10370;53.102;18.034;2023-12-07T11:34:41;0.20;99.90
20422;DHT22;10370;53.102;18.034;2023-12-07T11:40:25;0.20;99.90
20422;DHT22;10370;53.102;18.034;2023-12-07T11:46:55;0.20;99.90
20422;DHT22;10370;53.102;18.034;2023-12-07T11:52:29;0.20;99.90
20422;DHT22;10370;53.102;18.034;2023-12-07T11:58:18;0.30;99.90
20422;DHT22;10370;53.102;18.034;2023-12-07T12:03:43;0.30;99.90
20422;DHT22;10370;53.102;18.034;2023-12-07T12:09:06;0.30;99.90
20422;DHT22;10370;53.102;18.034;2023-12-07T12:14:31;0.40;99.90
20422;DHT22;10370;53.102;18.034;2023-12-07T12:19:54;0.40;99.90
20422;DHT22;10370;53.102;18.034;2023-12-07T12:25:17;0.30;99.90
20422;DHT22;10370;53.102;18.034;2023-12-07T12:31:02;0.40;99.90
20422;DHT22;10370;53.102;18.034;2023-12-07T12:36:25;0.40;99.90
20422;DHT22;10370;53.102;18.034;2023-12-07T12:42:23;0.30;99.90
20422;DHT22;10370;53.102;18.034;2023-12-07T12:47:55;0.40;99.90
20422;DHT22;10370;53.102;18.034;2023-12-07T12:54:01;0.40;99.90
20422;DHT22;10370;53.102;18.034;2023-12-07T12:59:25;0.50;99.90
20422;DHT22;10370;53.102;18.034;2023-12-07T13:04:47;0.50;99.90
20422;DHT22;10370;53.102;18.034;2023-12-07T13:10:18;0.50;99.90
20422;DHT22;10370;53.102;18.034;2023-12-07T13:16:16;0.40;99.90
20422;DHT22;10370;53.102;18.034;2023-12-07T13:22:02;0.40;99.90
20422;DHT22;10370;53.102;18.034;2023-12-07T13:27:34;0.40;99.90
20422;DHT22;10370;53.102;18.034;2023-12-07T13:39:34;0.30;99.90
20422;DHT22;10370;53.102;18.034;2023-12-07T13:44:58;0.40;99.90
20422;DHT22;10370;53.102;18.034;2023-12-07T13:50:28;0.40;99.90
20422;DHT22;10370;53.102;18.034;2023-12-07T13:55:58;0.30;99.90
20422;DHT22;10370;53.102;18.034;2023-12-07T14:01:21;0.30;99.90
20422;DHT22;10370;53.102;18.034;2023-12-07T14:06:44;0.30;99.90
20422;DHT22;10370;53.102;18.034;2023-12-07T14:12:07;0.30;99.90
20422;DHT22;10370;53.102;18.034;2023-12-07T14:17:48;0.20;99.90
20422;DHT22;10370;53.102;18.034;2023-12-07T14:23:14;0.20;99.90
20422;DHT22;10370;53.102;18.034;2023-12-07T14:28:37;0.10;99.90
20422;DHT22;10370;53.102;18.034;2023-12-07T14:34:00;0.10;99.90
20422;DHT22;10370;53.102;18.034;2023-12-07T14:39:23;0.10;99.90
20422;DHT22;10370;53.102;18.034;2023-12-07T14:44:46;0.10;99.90
20422;DHT22;10370;53.102;18.034;2023-12-07T14:50:09;0.10;99.90
20422;DHT22;10370;53.102;18.034;2023-12-07T14:55:31;0.10;99.90
20422;DHT22;10370;53.102;18.034;2023-12-07T15:00:54;0.10;99.90
20422;DHT22;10370;53.102;18.034;2023-12-07T15:06:22;0.10;99.90
20422;DHT22;10370;53.102;18.034;2023-12-07T15:11:48;0.10;99.90
20422;DHT22;10370;53.102;18.034;2023-12-07T15:17:11;0.10;99.90
20422;DHT22;10370;53.102;18.034;2023-12-07T15:22:34;0.00;99.90
20422;DHT22;10370;53.102;18.034;2023-12-07T15:27:59;0.00;99.90
20422;DHT22;10370;53.102;18.034;2023-12-07T15:33:21;0.00;99.90
20422;DHT22;10370;53.102;18.034;2023-12-07T15:38:45;0.00;99.90
20422;DHT22;10370;53.102;18.034;2023-12-07T15:44:08;0.00;99.90
20422;DHT22;10370;53.102;18.034;2023-12-07T15:49:36;0.00;99.90
20422;DHT22;10370;53.102;18.034;2023-12-07T15:55:35;0.00;99.90
20422;DHT22;10370;53.102;18.034;2023-12-07T16:01:01;0.00;99.90
20422;DHT22;10370;53.102;18.034;2023-12-07T16:07:23;-0.10;99.90
20422;DHT22;10370;53.102;18.034;2023-12-07T16:13:23;-0.10;99.90
20422;DHT22;10370;53.102;18.034;2023-12-07T16:18:59;-0.10;99.90
20422;DHT22;10370;53.102;18.034;2023-12-07T16:24:58;-0.10;99.90
20422;DHT22;10370;53.102;18.034;2023-12-07T16:30:28;-0.10;99.90
20422;DHT22;10370;53.102;18.034;2023-12-07T16:36:23;-0.10;99.90
20422;DHT22;10370;53.102;18.034;2023-12-07T16:41:47;-0.10;99.90
20422;DHT22;10370;53.102;18.034;2023-12-07T16:47:21;-0.10;99.90
20422;DHT22;10370;53.102;18.034;2023-12-07T16:52:57;-0.10;99.90
20422;DHT22;10370;53.102;18.034;2023-12-07T16:58:42;-0.10;99.90
20422;DHT22;10370;53.102;18.034;2023-12-07T17:04:04;-0.10;99.90
20422;DHT22;10370;53.102;18.034;2023-12-07T17:09:27;-0.10;99.90
20422;DHT22;10370;53.102;18.034;2023-12-07T17:14:50;-0.10;99.90
20422;DHT22;10370;53.102;18.034;2023-12-07T17:20:13;-0.10;99.90
20422;DHT22;10370;53.102;18.034;2023-12-07T17:25:36;-0.20;99.90
20422;DHT22;10370;53.102;18.034;2023-12-07T17:30:59;-0.10;99.90
20422;DHT22;10370;53.102;18.034;2023-12-07T17:36:55;-0.10;99.90
20422;DHT22;10370;53.102;18.034;2023-12-07T17:42:21;-0.10;99.90
20422;DHT22;10370;53.102;18.034;2023-12-07T17:47:44;-0.10;99.90
20422;DHT22;10370;53.102;18.034;2023-12-07T17:53:23;-0.10;99.90
20422;DHT22;10370;53.102;18.034;2023-12-07T17:59:30;-0.10;99.90
20422;DHT22;10370;53.102;18.034;2023-12-07T18:04:52;-0.10;99.90
20422;DHT22;10370;53.102;18.034;2023-12-07T18:10:28;-0.20;99.90
20422;DHT22;10370;53.102;18.034;2023-12-07T18:16:17;-0.10;99.90
20422;DHT22;10370;53.102;18.034;2023-12-07T18:22:01;-0.10;99.90
20422;DHT22;10370;53.102;18.034;2023-12-07T18:27:24;-0.10;99.90
20422;DHT22;10370;53.102;18.034;2023-12-07T18:32:47;-0.10;99.90
20422;DHT22;10370;53.102;18.034;2023-12-07T18:38:09;-0.10;99.90
20422;DHT22;10370;53.102;18.034;2023-12-07T18:43:32;-0.10;99.90
20422;DHT22;10370;53.102;18.034;2023-12-07T18:48:55;-0.10;99.90
20422;DHT22;10370;53.102;18.034;2023-12-07T18:54:17;-0.10;99.90
20422;DHT22;10370;53.102;18.034;2023-12-07T18:59:40;-0.10;99.90
20422;DHT22;10370;53.102;18.034;2023-12-07T19:05:21;-0.10;99.90
20422;DHT22;10370;53.102;18.034;2023-12-07T19:11:00;-0.10;99.90
20422;DHT22;10370;53.102;18.034;2023-12-07T19:16:23;-0.10;99.90
20422;DHT22;10370;53.102;18.034;2023-12-07T19:21:46;-0.10;99.90
20422;DHT22;10370;53.102;18.034;2023-12-07T19:27:10;-0.10;99.90
20422;DHT22;10370;53.102;18.034;2023-12-07T19:32:32;-0.20;99.90
20422;DHT22;10370;53.102;18.034;2023-12-07T19:37:55;-0.20;99.90
20422;DHT22;10370;53.102;18.034;2023-12-07T19:43:24;-0.20;99.90
20422;DHT22;10370;53.102;18.034;2023-12-07T19:48:47;-0.20;99.90
20422;DHT22;10370;53.102;18.034;2023-12-07T19:54:09;-0.20;99.90
20422;DHT22;10370;53.102;18.034;2023-12-07T20:06:05;-0.20;99.90
20422;DHT22;10370;53.102;18.034;2023-12-07T20:11:42;-0.10;99.90
20422;DHT22;10370;53.102;18.034;2023-12-07T20:17:06;-0.10;99.90
20422;DHT22;10370;53.102;18.034;2023-12-07T20:22:30;-0.10;99.90
20422;DHT22;10370;53.102;18.034;2023-12-07T20:27:53;-0.20;99.90
20422;DHT22;10370;53.102;18.034;2023-12-07T20:33:16;-0.10;99.90
20422;DHT22;10370;53.102;18.034;2023-12-07T20:38:40;-0.10;99.90
20422;DHT22;10370;53.102;18.034;2023-12-07T20:44:05;-0.20;99.90
20422;DHT22;10370;53.102;18.034;2023-12-07T20:49:29;-0.10;99.90
20422;DHT22;10370;53.102;18.034;2023-12-07T21:07:08;-0.20;99.90
20422;DHT22;10370;53.102;18.034;2023-12-07T21:12:42;-0.20;99.90
20422;DHT22;10370;53.102;18.034;2023-12-07T21:18:06;-0.20;99.90
20422;DHT22;10370;53.102;18.034;2023-12-07T21:23:57;-0.20;99.90
20422;DHT22;10370;53.102;18.034;2023-12-07T21:29:20;-0.20;99.90
20422;DHT22;10370;53.102;18.034;2023-12-07T21:34:43;-0.20;99.90
20422;DHT22;10370;53.102;18.034;2023-12-07T21:40:38;-0.20;99.90
20422;DHT22;10370;53.102;18.034;2023-12-07T21:46:13;-0.20;99.90
20422;DHT22;10370;53.102;18.034;2023-12-07T21:51:35;-0.20;99.90
20422;DHT22;10370;53.102;18.034;2023-12-07T21:56:58;-0.20;99.90
20422;DHT22;10370;53.102;18.034;2023-12-07T22:02:21;-0.20;99.90
20422;DHT22;10370;53.102;18.034;2023-12-07T22:07:43;-0.20;99.90
20422;DHT22;10370;53.102;18.034;2023-12-07T22:13:07;-0.20;99.90
20422;DHT22;10370;53.102;18.034;2023-12-07T22:19:24;-0.20;99.90
20422;DHT22;10370;53.102;18.034;2023-12-07T22:24:55;-0.20;99.90
20422;DHT22;10370;53.102;18.034;2023-12-07T22:30:38;-0.20;99.90
20422;DHT22;10370;53.102;18.034;2023-12-07T22:36:01;-0.10;99.90
20422;DHT22;10370;53.102;18.034;2023-12-07T22:41:53;-0.20;99.90
20422;DHT22;10370;53.102;18.034;2023-12-07T22:47:50;-0.10;99.90
20422;DHT22;10370;53.102;18.034;2023-12-07T22:53:13;-0.10;99.90
20422;DHT22;10370;53.102;18.034;2023-12-07T22:58:36;-0.10;99.90
20422;DHT22;10370;53.102;18.034;2023-12-07T23:03:59;-0.10;99.90
20422;DHT22;10370;53.102;18.034;2023-12-07T23:09:22;-0.10;99.90
20422;DHT22;10370;53.102;18.034;2023-12-07T23:14:45;-0.10;99.90
20422;DHT22;10370;53.102;18.034;2023-12-07T23:20:13;-0.10;99.90
20422;DHT22;10370;53.102;18.034;2023-12-07T23:32:37;-0.10;99.90
20422;DHT22;10370;53.102;18.034;2023-12-07T23:38:09;-0.10;99.90
20422;DHT22;10370;53.102;18.034;2023-12-07T23:43:35;-0.10;99.90
20422;DHT22;10370;53.102;18.034;2023-12-07T23:48:58;-0.10;99.90
20422;DHT22;10370;53.102;18.034;2023-12-07T23:54:21;-0.10;99.90
20422;DHT22;10370;53.102;18.034;2023-12-07T23:59:46;0.00;99.90
